Time;durP1;ratioP1;P1;durP2;ratioP2;P2;SDS_P1;SDS_P2;PMS_P1;PMS_P2;Temp;Humidity;BMP_temperature;BMP_pressure;BME280_temperature;BME280_humidity;BME280_pressure;Samples;Min_cycle;Max_cycle;Signal;HPM_P1;HPM_P2
2022/05/26 00:01:19;;;;;;;3.83;3.50;;;;;;;12.40;91.24;100555.53;1675601;85;25799;-80
2022/05/26 00:03:47;;;;;;;5.00;4.17;;;;;;;12.36;91.02;100556.42;1675690;85;28280;-80
2022/05/26 00:06:18;;;;;;;6.45;3.95;;;;;;;12.35;91.07;100555.30;1675358;85;25914;-80
2022/05/26 00:08:45;;;;;;;6.87;4.95;;;;;;;12.34;91.18;100558.98;1675514;84;25936;-80
2022/05/26 00:11:16;;;;;;;5.65;5.05;;;;;;;12.32;90.99;100561.88;1675901;85;26312;-80
2022/05/26 00:13:42;;;;;;;;;;;;;;;12.28;90.96;100560.62;1677789;85;25750;-80
2022/05/26 00:16:10;;;;;;;8.93;5.30;;;;;;;12.24;90.88;100562.56;1675816;85;28279;-80
2022/05/26 00:18:37;;;;;;;5.33;4.65;;;;;;;12.15;90.86;100567.27;1675515;84;26542;-80
2022/05/26 00:21:04;;;;;;;5.10;4.50;;;;;;;12.12;90.91;100565.50;1661533;85;25747;-79
2022/05/26 00:23:31;;;;;;;7.10;4.72;;;;;;;12.05;90.94;100565.45;1648265;86;26447;-80
2022/05/26 00:25:57;;;;;;;6.17;4.30;;;;;;;12.01;91.05;100575.44;1648808;86;26491;-79
2022/05/26 00:28:23;;;;;;;7.72;4.12;;;;;;;11.92;91.06;100581.47;1648311;85;27471;-80
2022/05/26 00:30:49;;;;;;;4.78;3.35;;;;;;;11.88;91.34;100582.05;1648095;85;26492;-80
2022/05/26 00:33:17;;;;;;;4.22;3.50;;;;;;;11.82;91.48;100579.66;1648054;86;25942;-80
2022/05/26 00:35:43;;;;;;;3.80;3.40;;;;;;;11.76;91.56;100572.35;1648431;86;26580;-80
2022/05/26 00:38:13;;;;;;;4.37;2.90;;;;;;;11.73;91.73;100567.90;1648104;86;25807;-80
2022/05/26 00:40:43;;;;;;;4.55;3.33;;;;;;;11.72;91.79;100574.30;1648443;85;27491;-80
2022/05/26 00:43:10;;;;;;;3.75;2.98;;;;;;;11.67;91.82;100572.20;1647970;85;26182;-80
2022/05/26 00:45:54;;;;;;;5.15;2.92;;;;;;;11.66;91.97;100575.86;1648272;86;25872;-80
2022/05/26 00:48:25;;;;;;;3.33;3.02;;;;;;;11.64;92.04;100571.20;1648082;86;25772;-80
2022/05/26 00:50:54;;;;;;;;;;;;;;;11.64;92.17;100574.72;1650704;85;25881;-80
2022/05/26 00:53:43;;;;;;;5.08;3.10;;;;;;;11.62;92.25;100570.56;1647229;86;26932;-80
2022/05/26 00:56:15;;;;;;;3.98;3.58;;;;;;;11.58;92.31;100576.84;1647381;86;25297;-79
2022/05/26 00:58:46;;;;;;;4.25;3.00;;;;;;;11.58;92.48;100575.50;1648209;85;25835;-80
2022/05/26 01:01:12;;;;;;;;;;;;;;;11.60;92.43;100582.01;1650812;86;26031;-80
2022/05/26 01:03:47;;;;;;;4.03;3.05;;;;;;;11.62;92.48;100577.28;1648370;86;25735;-80
2022/05/26 01:06:48;;;;;;;3.47;3.17;;;;;;;11.59;92.47;100576.31;1648495;86;27541;-80
2022/05/26 01:09:14;;;;;;;3.40;3.10;;;;;;;11.57;92.43;100577.02;1648578;85;26298;-80
2022/05/26 01:11:43;;;;;;;4.65;3.67;;;;;;;11.55;92.68;100570.52;1648417;86;25962;-80
2022/05/26 01:14:24;;;;;;;3.95;3.58;;;;;;;11.55;92.64;100571.85;1648270;86;26708;-80
2022/05/26 01:17:15;;;;;;;4.30;3.52;;;;;;;11.54;92.64;100565.35;1648214;86;26688;-80
2022/05/26 01:20:20;;;;;;;5.45;3.98;;;;;;;11.54;92.74;100564.01;1648285;85;27488;-80
2022/05/26 01:23:32;;;;;;;4.25;3.85;;;;;;;11.57;92.72;100563.60;1648137;86;26501;-80
2022/05/26 01:26:29;;;;;;;4.25;3.80;;;;;;;11.54;92.75;100566.69;1647909;86;25785;-80
2022/05/26 01:29:26;;;;;;;4.35;3.58;;;;;;;11.52;92.76;100576.79;1647910;86;25912;-80
2022/05/26 01:31:58;;;;;;;4.83;3.92;;;;;;;11.51;92.55;100575.11;1647554;86;25924;-80
2022/05/26 01:34:56;;;;;;;4.78;4.28;;;;;;;11.46;92.50;100566.84;1648884;86;27556;-80
2022/05/26 01:38:03;;;;;;;4.20;3.80;;;;;;;11.47;92.74;100565.80;1648737;86;26518;-80
2022/05/26 01:40:56;;;;;;;4.10;3.70;;;;;;;11.45;92.65;100575.39;1647448;86;25943;-80
2022/05/26 01:43:57;;;;;;;6.55;4.30;;;;;;;11.42;92.54;100567.72;1648181;86;25854;-80
2022/05/26 01:46:35;;;;;;;4.87;3.58;;;;;;;11.36;92.49;100567.66;1647188;86;26015;-80
2022/05/26 01:49:18;;;;;;;6.35;4.10;;;;;;;11.34;92.72;100562.48;1648863;86;27591;-80
2022/05/26 01:51:52;;;;;;;5.20;3.95;;;;;;;11.32;92.77;100565.87;1648910;86;25913;-80
2022/05/26 01:54:42;;;;;;;4.80;3.90;;;;;;;11.30;92.83;100565.74;1648010;86;26412;-80
2022/05/26 01:57:19;;;;;;;5.17;3.85;;;;;;;11.28;92.94;100559.24;1648362;86;25936;-81
2022/05/26 01:59:56;;;;;;;5.42;3.85;;;;;;;11.31;92.95;100566.08;1648677;86;25351;-80
2022/05/26 02:02:31;;;;;;;4.80;3.85;;;;;;;11.28;92.93;100569.13;1648281;86;27442;-80
2022/05/26 02:05:14;;;;;;;4.92;3.55;;;;;;;11.26;93.10;100569.33;1648150;86;26071;-80
2022/05/26 02:07:51;;;;;;;5.45;3.83;;;;;;;11.27;93.10;100565.61;1648010;86;25941;-80
2022/05/26 02:10:28;;;;;;;5.05;3.92;;;;;;;11.26;93.07;100560.45;1649136;86;26412;-81
2022/05/26 02:13:03;;;;;;;6.80;4.30;;;;;;;11.24;93.11;100554.45;1648457;86;25937;-81
2022/05/26 02:15:40;;;;;;;7.90;3.95;;;;;;;11.24;93.02;100561.99;1648147;86;27497;-81
2022/05/26 02:18:11;;;;;;;4.08;3.67;;;;;;;11.25;92.91;100562.30;1648609;86;25825;-80
2022/05/26 02:20:43;;;;;;;9.85;3.95;;;;;;;11.24;92.87;100564.67;1648285;86;25848;-80
2022/05/26 02:23:32;;;;;;;4.33;3.62;;;;;;;11.24;92.92;100563.33;1648252;85;25866;-80
2022/05/26 02:26:02;;;;;;;4.17;3.77;;;;;;;11.25;92.80;100566.31;1632761;86;26458;-80
2022/05/26 02:29:51;;;;;;;4.95;3.90;;;;;;;11.22;92.61;100570.73;1648580;85;27474;-80
2022/05/26 02:30:58;;;;;;;6.00;3.87;;;;;;;11.19;92.65;100560.89;1647956;85;26605;-80
2022/05/26 02:33:26;;;;;;;4.10;3.67;;;;;;;11.17;92.62;100569.63;1675924;85;25446;-80
2022/05/26 02:35:53;;;;;;;4.72;4.25;;;;;;;11.16;92.70;100571.48;1676240;85;26566;-80
2022/05/26 02:38:23;;;;;;;4.92;3.92;;;;;;;11.16;92.71;100563.44;1676184;85;25322;-81
2022/05/26 02:40:54;;;;;;;6.22;4.55;;;;;;;11.16;92.58;100567.45;1676080;84;27621;-80
2022/05/26 02:43:26;;;;;;;5.60;4.03;;;;;;;11.14;92.58;100561.45;1675524;85;26024;-80
2022/05/26 02:46:26;;;;;;;5.70;3.95;;;;;;;11.16;92.60;100557.27;1675815;85;25358;-81
2022/05/26 02:49:27;;;;;;;6.60;4.30;;;;;;;11.17;92.48;100556.23;1675826;84;25999;-80
2022/05/26 02:52:14;;;;;;;5.03;4.62;;;;;;;11.12;92.48;100560.82;1675688;85;25954;-80
2022/05/26 02:55:12;;;;;;;4.53;4.05;;;;;;;11.10;92.56;100556.70;1675554;85;27549;-80
2022/05/26 02:58:01;;;;;;;4.72;3.98;;;;;;;11.08;92.68;100558.20;1675753;85;25838;-81
2022/05/26 03:00:51;;;;;;;5.20;4.55;;;;;;;11.10;92.79;100557.50;1675729;84;25803;-81
2022/05/26 03:03:43;;;;;;;4.87;4.40;;;;;;;11.13;92.84;100558.98;1669597;85;25971;-81
2022/05/26 03:06:19;;;;;;;5.17;4.53;;;;;;;11.14;92.56;100558.77;1675380;85;25960;-80
2022/05/26 03:08:46;;;;;;;5.78;5.20;;;;;;;11.14;92.57;100556.63;1673937;85;27552;-80
2022/05/26 03:11:20;;;;;;;6.37;5.22;;;;;;;11.14;92.52;100554.75;1676028;85;26169;-81
2022/05/26 03:13:47;;;;;;;6.42;5.47;;;;;;;11.16;92.50;100559.41;1675444;85;25972;-80
2022/05/26 03:16:13;;;;;;;6.03;5.45;;;;;;;11.18;92.44;100554.72;1675806;85;26474;-80
2022/05/26 03:18:40;;;;;;;5.60;5.10;;;;;;;11.19;92.32;100552.34;1675762;84;26018;-80
2022/05/26 03:21:08;;;;;;;6.20;5.65;;;;;;;11.20;92.34;100555.36;1671267;85;27463;-80
2022/05/26 03:23:36;;;;;;;6.65;5.90;;;;;;;11.23;92.36;100553.61;1648244;86;25335;-80
2022/05/26 03:26:05;;;;;;;6.90;6.20;;;;;;;11.24;92.48;100564.67;1648757;86;25772;-80
2022/05/26 03:28:32;;;;;;;9.60;6.17;;;;;;;11.27;92.62;100566.14;1620561;88;26236;-81
2022/05/26 03:30:59;;;;;;;7.33;6.35;;;;;;;11.29;93.02;100553.38;1623632;86;26076;-80
2022/05/26 03:33:26;;;;;;;6.58;5.97;;;;;;;11.29;93.08;100556.86;1648414;86;27661;-80
2022/05/26 03:41:26;;;;;;;9.98;8.85;;;;;;;11.43;93.84;100555.98;1621868;88;26026;-80
2022/05/26 03:43:57;;;;;;;11.95;10.85;;;;;;;11.48;93.91;100558.08;1647483;86;26510;-80
2022/05/26 03:46:25;;;;;;;12.28;9.80;;;;;;;11.52;94.21;100565.55;1647805;86;27450;-81
2022/05/26 03:48:51;;;;;;;10.50;7.97;;;;;;;11.55;94.40;100557.60;1648312;85;25983;-81
2022/05/26 03:51:18;;;;;;;8.83;7.42;;;;;;;11.61;94.69;100566.25;1648495;86;26466;-81
2022/05/26 03:53:44;;;;;;;8.35;7.42;;;;;;;11.62;94.77;100559.33;1620305;88;25891;-80
2022/05/26 03:56:10;;;;;;;11.70;8.55;;;;;;;11.65;95.21;100562.14;1648746;86;25798;-81
2022/05/26 03:58:37;;;;;;;9.00;8.10;;;;;;;11.69;95.49;100557.23;1648740;86;27492;-80
2022/05/26 04:01:06;;;;;;;10.78;8.50;;;;;;;11.73;95.90;100559.34;1648905;86;26033;-80
2022/05/26 04:03:33;;;;;;;10.45;9.20;;;;;;;11.78;96.41;100560.94;1672595;85;25794;-80
2022/05/26 04:06:00;;;;;;;10.82;9.38;;;;;;;11.85;96.96;100564.48;1672552;85;25961;-80
2022/05/26 04:08:26;;;;;;;11.97;9.50;;;;;;;11.90;96.79;100560.70;1672276;85;26093;-80
2022/05/26 04:10:52;;;;;;;12.00;9.35;;;;;;;11.96;97.12;100559.92;1676236;85;27470;-80
2022/05/26 04:13:18;;;;;;;11.48;9.68;;;;;;;12.01;97.08;100562.02;1676083;84;25798;-80
2022/05/26 04:15:45;;;;;;;10.65;9.55;;;;;;;12.06;97.20;100556.89;1672708;85;25819;-80
2022/05/26 04:18:11;;;;;;;10.68;9.60;;;;;;;12.12;97.33;100559.63;1676308;85;26711;-80
2022/05/26 04:20:38;;;;;;;10.10;9.03;;;;;;;12.19;97.48;100553.75;1676506;85;25951;-81
2022/05/26 04:23:05;;;;;;;12.45;9.88;;;;;;;12.23;97.49;100559.04;1676349;85;27543;-81
2022/05/26 04:25:32;;;;;;;10.88;9.75;;;;;;;12.28;97.36;100561.13;1676942;85;26432;-80
2022/05/26 04:27:58;;;;;;;12.80;10.40;;;;;;;12.30;97.60;100554.55;1672647;84;25913;-81
2022/05/26 04:30:25;;;;;;;14.33;11.18;;;;;;;12.36;97.63;100556.94;1676619;85;26331;-80
2022/05/26 04:32:51;;;;;;;15.00;10.75;;;;;;;12.46;97.61;100562.79;1671198;85;25900;-80
2022/05/26 04:35:18;;;;;;;11.15;10.05;;;;;;;12.52;97.74;100557.95;1652966;85;27469;-80
2022/05/26 04:37:45;;;;;;;13.70;10.85;;;;;;;12.57;97.57;100557.36;1661374;85;25849;-80
2022/05/26 04:40:13;;;;;;;15.10;11.50;;;;;;;12.63;97.65;100556.55;1672537;84;25778;-80
2022/05/26 04:42:40;;;;;;;14.78;11.28;;;;;;;12.66;97.50;100555.63;1667909;85;26506;-80
2022/05/26 04:45:10;;;;;;;11.78;10.55;;;;;;;12.73;97.68;100551.61;1668545;85;26585;-80
2022/05/26 04:47:37;;;;;;;14.10;12.18;;;;;;;12.80;97.78;100557.85;1678471;84;27737;-80
2022/05/26 04:50:04;;;;;;;13.78;11.33;;;;;;;12.89;97.90;100557.48;1675167;85;26350;-80
2022/05/26 04:52:30;;;;;;;11.83;10.63;;;;;;;12.97;97.94;100561.32;1675958;85;25796;-80
2022/05/26 04:54:56;;;;;;;14.33;11.63;;;;;;;13.09;97.98;100562.91;1672304;85;25865;-80
2022/05/26 04:57:24;;;;;;;11.68;10.40;;;;;;;13.18;97.95;100566.24;1675940;85;25971;-80
2022/05/26 04:59:52;;;;;;;12.90;11.33;;;;;;;13.24;97.61;100566.80;1674501;84;28313;-80
2022/05/26 05:02:21;;;;;;;13.43;11.33;;;;;;;13.30;97.57;100565.42;1676083;85;25370;-80
2022/05/26 05:04:50;;;;;;;12.37;10.95;;;;;;;13.35;97.35;100568.34;1676292;85;25801;-80
2022/05/26 05:07:18;;;;;;;15.48;12.05;;;;;;;13.45;97.58;100564.72;1675972;85;26568;-80
2022/05/26 05:09:46;;;;;;;13.08;11.22;;;;;;;13.57;97.82;100568.98;1675988;84;25861;-80
2022/05/26 05:12:19;;;;;;;11.80;9.83;;;;;;;13.67;97.47;100563.50;1675522;85;27705;-80
2022/05/26 05:14:52;;;;;;;12.50;11.20;;;;;;;13.79;97.48;100567.75;1675749;85;25813;-80
2022/05/26 05:17:22;;;;;;;12.03;10.82;;;;;;;13.93;97.58;100555.91;1675913;85;25837;-80
2022/05/26 05:19:49;;;;;;;13.83;10.88;;;;;;;14.06;97.61;100562.63;1675682;84;25885;-80
2022/05/26 05:22:42;;;;;;;11.48;10.03;;;;;;;14.19;97.38;100559.08;1676022;85;25858;-80
2022/05/26 05:25:24;;;;;;;11.93;10.72;;;;;;;14.25;97.00;100562.27;1675755;85;27459;-80
2022/05/26 05:27:58;;;;;;;12.03;10.53;;;;;;;14.26;96.30;100566.13;1675827;85;25933;-80
2022/05/26 05:30:29;;;;;;;11.20;10.05;;;;;;;14.29;96.42;100567.56;1675796;84;25281;-80
2022/05/26 05:33:23;;;;;;;12.05;10.58;;;;;;;14.31;96.04;100566.84;1675222;85;25843;-79
2022/05/26 05:35:54;;;;;;;15.32;10.08;;;;;;;14.32;95.82;100569.86;1675919;85;25935;-80
2022/05/26 05:38:20;;;;;;;11.53;10.35;;;;;;;14.34;95.70;100573.16;1675638;85;28749;-80
2022/05/26 05:40:48;;;;;;;12.75;9.80;;;;;;;14.34;95.56;100569.13;1675542;84;26620;-80
2022/05/26 05:43:15;;;;;;;13.05;9.73;;;;;;;14.33;95.14;100560.20;1675475;85;25378;-80
2022/05/26 05:45:41;;;;;;;11.95;9.40;;;;;;;14.35;94.78;100562.70;1675795;85;25909;-80
2022/05/26 05:48:08;;;;;;;12.30;10.35;;;;;;;14.31;94.36;100569.02;1676038;85;25553;-80
2022/05/26 05:50:35;;;;;;;15.38;9.73;;;;;;;14.33;94.73;100564.76;1675988;84;27533;-80
2022/05/26 05:53:01;;;;;;;10.40;9.15;;;;;;;14.43;94.98;100570.04;1675629;85;25890;-80
2022/05/26 05:55:30;;;;;;;11.70;9.15;;;;;;;14.50;95.16;100572.17;1675914;85;25858;-80
2022/05/26 05:57:57;;;;;;;11.33;9.23;;;;;;;14.60;94.79;100567.17;1675851;85;26535;-79
2022/05/26 06:00:23;;;;;;;9.58;8.65;;;;;;;14.67;94.56;100576.05;1653822;85;25938;-80
2022/05/26 06:02:50;;;;;;;9.78;8.25;;;;;;;14.79;94.61;100569.47;1648445;86;28266;-80
2022/05/26 06:05:16;;;;;;;9.08;8.13;;;;;;;14.91;94.17;100566.39;1648209;86;25631;-80
2022/05/26 06:07:42;;;;;;;9.05;7.62;;;;;;;15.04;94.29;100564.98;1648235;86;25808;-80
2022/05/26 06:10:13;;;;;;;10.85;8.25;;;;;;;15.18;93.57;100569.23;1648301;85;26594;-80
2022/05/26 06:12:39;;;;;;;12.30;7.22;;;;;;;15.29;93.06;100567.20;1648317;86;25868;-79
2022/05/26 06:15:07;;;;;;;10.48;8.05;;;;;;;15.42;92.14;100566.27;1648114;86;28460;-80
2022/05/26 06:17:33;;;;;;;9.60;6.92;;;;;;;15.52;92.49;100563.13;1648692;86;26001;-80
2022/05/26 06:20:00;;;;;;;7.92;6.80;;;;;;;15.62;91.96;100560.76;1648386;85;25926;-80
2022/05/26 06:22:26;;;;;;;7.97;6.92;;;;;;;15.76;91.60;100556.92;1648334;86;26554;-80
2022/05/26 06:24:52;;;;;;;8.35;6.72;;;;;;;15.85;91.31;100555.05;1648408;86;25845;-80
2022/05/26 06:30:11;;;;;;;5.95;5.35;;;;;;;16.09;90.18;100550.66;1648344;85;25774;-80
2022/05/26 06:38:25;;;;;;;9.30;6.00;;;;;;;16.38;88.55;100545.05;1648540;86;25899;-80
2022/05/26 06:40:52;;;;;;;6.83;6.05;;;;;;;16.46;88.42;100548.28;1648533;85;28291;-80
2022/05/26 06:43:20;;;;;;;6.30;4.97;;;;;;;16.57;88.71;100548.08;1648463;86;25847;-80
2022/05/26 06:45:48;;;;;;;8.98;5.25;;;;;;;16.68;87.93;100552.18;1648506;86;26261;-80
2022/05/26 06:48:16;;;;;;;5.60;5.10;;;;;;;16.80;86.29;100546.84;1648621;86;25936;-80
2022/05/26 06:50:42;;;;;;;5.40;4.90;;;;;;;16.85;84.94;100541.03;1648283;85;25939;-80
2022/05/26 06:53:10;;;;;;;6.97;5.17;;;;;;;16.93;86.68;100544.79;1648174;86;28440;-80
2022/05/26 06:55:36;;;;;;;6.90;4.78;;;;;;;17.07;86.29;100536.45;1648433;86;25963;-81
2022/05/26 06:58:02;;;;;;;6.20;4.85;;;;;;;17.14;85.30;100538.03;1647704;86;26598;-81
2022/05/26 07:00:29;;;;;;;4.65;4.17;;;;;;;17.24;84.94;100537.45;1647141;85;25760;-81
2022/05/26 07:02:55;;;;;;;4.90;4.40;;;;;;;17.34;84.78;100530.97;1647262;86;25848;-80
2022/05/26 07:05:21;;;;;;;5.12;4.15;;;;;;;17.47;84.71;100530.76;1647263;86;27460;-81
2022/05/26 07:07:47;;;;;;;4.10;3.65;;;;;;;17.57;83.49;100524.26;1646951;87;25991;-80
2022/05/26 07:10:14;;;;;;;4.37;3.98;;;;;;;17.68;83.29;100523.45;1647280;85;25309;-80
2022/05/26 07:12:41;;;;;;;6.15;4.00;;;;;;;17.78;82.52;100517.43;1647512;86;25933;-80
2022/05/26 07:15:10;;;;;;;6.97;3.30;;;;;;;17.87;80.69;100520.09;1646850;86;25871;-80
2022/05/26 07:17:38;;;;;;;6.53;3.47;;;;;;;17.96;81.22;100519.51;1646711;87;27484;-80
2022/05/26 07:20:05;;;;;;;3.77;3.37;;;;;;;18.05;80.81;100527.55;1646967;85;25613;-79
2022/05/26 07:22:32;;;;;;;4.12;3.20;;;;;;;18.16;80.47;100529.43;1646956;87;25834;-80
2022/05/26 07:24:59;;;;;;;4.87;3.42;;;;;;;18.20;80.10;100521.63;1647108;86;26537;-80
2022/05/26 07:27:25;;;;;;;3.25;2.80;;;;;;;18.20;78.16;100531.95;1646445;86;26652;-80
2022/05/26 07:29:53;;;;;;;3.52;3.22;;;;;;;18.24;76.13;100529.06;1646278;85;28265;-80
2022/05/26 07:32:20;;;;;;;5.10;3.10;;;;;;;18.28;77.39;100527.52;1646429;87;25883;-80
2022/05/26 07:34:46;;;;;;;3.35;3.05;;;;;;;18.38;77.74;100525.56;1646930;87;25846;-80
2022/05/26 07:42:42;;;;;;;5.72;3.33;;;;;;;18.68;75.95;100530.81;1647457;86;27430;-78
2022/05/26 07:45:10;;;;;;;5.45;3.40;;;;;;;18.71;75.91;100528.99;1646771;87;25680;-79
2022/05/26 07:47:39;;;;;;;4.45;2.70;;;;;;;18.80;75.59;100525.64;1647287;86;25850;-79
2022/05/26 07:50:11;;;;;;;5.00;2.62;;;;;;;18.86;73.92;100532.80;1646708;85;26019;-79
2022/05/26 07:52:37;;;;;;;3.15;2.77;;;;;;;18.90;72.98;100530.45;1647224;86;25795;-79
2022/05/26 07:55:05;;;;;;;3.55;2.52;;;;;;;18.92;72.46;100536.45;1646840;87;27483;-79
2022/05/26 07:57:32;;;;;;;3.30;2.50;;;;;;;18.93;71.64;100536.20;1647192;86;26611;-79
2022/05/26 07:59:59;;;;;;;3.87;2.50;;;;;;;18.91;71.49;100525.30;1647279;85;25880;-79
2022/05/26 08:02:25;;;;;;;3.10;2.65;;;;;;;18.91;72.50;100530.72;1648256;86;25953;-79
2022/05/26 08:04:52;;;;;;;5.75;2.67;;;;;;;18.94;70.61;100529.72;1648309;86;26060;-79
2022/05/26 08:07:18;;;;;;;5.25;3.08;;;;;;;18.92;70.56;100533.74;1648315;85;27690;-79
2022/05/26 08:09:45;;;;;;;3.30;3.00;;;;;;;18.95;69.54;100527.28;1648360;85;26002;-79
2022/05/26 08:12:13;;;;;;;5.65;3.10;;;;;;;18.98;69.16;100528.70;1648048;85;25721;-79
2022/05/26 08:14:41;;;;;;;4.62;3.10;;;;;;;19.01;70.23;100530.38;1648467;85;27051;-79
2022/05/26 08:17:09;;;;;;;5.08;2.83;;;;;;;19.14;69.38;100533.33;1648247;86;25956;-79
2022/05/26 08:19:37;;;;;;;2.60;2.35;;;;;;;19.14;68.17;100520.58;1648439;86;27456;-79
2022/05/26 08:22:03;;;;;;;3.20;2.55;;;;;;;19.21;69.90;100520.42;1648171;85;25908;-79
2022/05/26 08:24:29;;;;;;;3.20;2.25;;;;;;;19.28;67.27;100521.63;1648165;85;25957;-79
2022/05/26 08:26:56;;;;;;;8.55;2.80;;;;;;;19.33;67.44;100524.44;1647950;86;25764;-79
2022/05/26 08:29:22;;;;;;;4.90;2.30;;;;;;;19.40;68.12;100525.12;1648258;85;25887;-79
2022/05/26 08:31:48;;;;;;;3.37;2.50;;;;;;;19.44;67.37;100520.87;1691787;81;27546;-79
2022/05/26 08:34:17;;;;;;;4.42;2.20;;;;;;;19.51;66.68;100512.83;1708335;82;26665;-79
2022/05/26 08:36:43;;;;;;;7.70;2.22;;;;;;;19.65;64.96;100517.41;1722422;82;25830;-79
2022/05/26 08:39:09;;;;;;;4.42;2.25;;;;;;;19.78;66.74;100523.87;1734672;82;25805;-79
2022/05/26 08:41:43;;;;;;;2.37;2.17;;;;;;;19.80;63.68;100519.00;1725714;82;25941;-79
2022/05/26 08:47:24;;;;;;;3.47;2.35;;;;;;;19.78;64.04;100528.73;1608887;81;26717;-79
2022/05/26 08:50:11;;;;;;;3.92;2.25;;;;;;;19.82;65.01;100525.02;1597915;87;26498;-79
2022/05/26 08:53:09;;;;;;;2.72;1.95;;;;;;;19.83;61.51;100517.12;1601434;88;26360;-79
2022/05/26 08:55:48;;;;;;;4.95;2.20;;;;;;;19.87;63.05;100512.83;1633286;87;25975;-79
2022/05/26 08:58:21;;;;;;;1.40;1.30;;;;;;;19.96;63.83;100520.33;1584905;89;27483;-79
2022/05/26 09:00:50;;;;;;;3.02;1.82;;;;;;;20.00;59.98;100516.03;1589684;88;26128;-79
2022/05/26 09:03:27;;;;;;;2.27;1.62;;;;;;;19.99;60.69;100510.86;1614891;87;26574;-79
2022/05/26 09:06:14;;;;;;;4.55;2.20;;;;;;;20.05;61.99;100518.53;1614786;88;26656;-79
2022/05/26 09:14:41;;;;;;;4.65;1.75;;;;;;;20.30;59.97;100521.09;1607751;89;26116;-79
2022/05/26 09:17:12;;;;;;;3.85;1.75;;;;;;;20.36;56.95;100509.20;1606711;89;25954;-79
2022/05/26 09:19:49;;;;;;;2.05;1.85;;;;;;;20.38;58.17;100524.73;1608106;89;25787;-78
2022/05/26 09:22:29;;;;;;;4.90;1.30;;;;;;;20.44;55.98;100521.03;1608467;89;25871;-80
2022/05/26 09:24:58;;;;;;;6.83;1.32;;;;;;;20.50;56.31;100512.38;1607854;89;27468;-79
2022/05/26 09:27:34;;;;;;;3.02;1.20;;;;;;;20.59;56.88;100513.58;1608029;88;25852;-80
2022/05/26 09:30:29;;;;;;;2.58;1.17;;;;;;;20.65;56.51;100517.47;1608455;89;25900;-79
2022/05/26 09:32:57;;;;;;;1.20;1.00;;;;;;;20.57;56.57;100523.91;1608159;89;26079;-80
2022/05/26 09:35:28;;;;;;;3.00;1.25;;;;;;;20.54;55.04;100517.59;1608200;89;26100;-79
2022/05/26 09:38:03;;;;;;;3.33;1.30;;;;;;;20.52;52.70;100511.05;1608338;89;27466;-80
2022/05/26 09:40:40;;;;;;;1.82;1.40;;;;;;;20.47;54.13;100513.70;1608172;89;25867;-79
2022/05/26 09:43:18;;;;;;;1.82;1.20;;;;;;;20.54;54.68;100512.98;1608522;89;25872;-79
2022/05/26 09:45:52;;;;;;;1.70;1.20;;;;;;;20.58;55.25;100513.28;1608535;89;26583;-79
2022/05/26 09:48:24;;;;;;;5.20;1.25;;;;;;;20.56;54.51;100514.08;1608381;89;25787;-79
2022/05/26 09:51:04;;;;;;;3.80;0.90;;;;;;;20.53;55.92;100518.69;1608681;89;26234;-79
2022/05/26 09:53:38;;;;;;;2.17;0.98;;;;;;;20.51;53.70;100518.91;1608094;89;25967;-79
2022/05/26 09:56:05;;;;;;;2.45;0.95;;;;;;;20.42;54.40;100525.07;1608491;89;25934;-79
2022/05/26 09:58:37;;;;;;;3.35;1.12;;;;;;;20.34;54.17;100522.23;1608170;88;25970;-79
2022/05/26 10:01:26;;;;;;;2.27;1.02;;;;;;;20.29;52.80;100517.28;1646516;86;25892;-79
2022/05/26 10:04:19;;;;;;;1.65;1.05;;;;;;;20.33;55.06;100508.89;1653700;86;27600;-79
2022/05/26 10:06:51;;;;;;;1.95;1.30;;;;;;;20.52;56.08;100511.58;1653082;86;25961;-79
2022/05/26 10:09:49;;;;;;;1.65;1.10;;;;;;;20.64;53.33;100508.17;1653119;86;26315;-79
2022/05/26 10:12:45;;;;;;;1.87;1.02;;;;;;;20.61;52.44;100508.17;1632991;87;26810;-79
2022/05/26 10:15:41;;;;;;;2.27;1.10;;;;;;;20.49;50.96;100514.80;1632964;87;25854;-80
2022/05/26 10:18:33;;;;;;;4.55;1.37;;;;;;;20.42;52.47;100510.91;1633752;87;28384;-80
2022/05/26 10:21:32;;;;;;;4.30;1.40;;;;;;;20.44;53.01;100505.23;1633107;87;26483;-80
2022/05/26 10:24:19;;;;;;;2.65;1.22;;;;;;;20.46;52.56;100507.16;1595861;87;25842;-80
2022/05/26 10:26:54;;;;;;;4.90;1.50;;;;;;;20.40;53.22;100510.90;1627798;87;25894;-79
2022/05/26 10:29:37;;;;;;;4.75;1.15;;;;;;;20.26;51.68;100511.80;1633420;87;25807;-79
2022/05/26 10:32:36;;;;;;;3.83;1.12;;;;;;;20.07;52.18;100515.03;1632974;87;27657;-80
2022/05/26 10:35:19;;;;;;;1.67;1.12;;;;;;;19.94;53.02;100517.04;1633117;87;25850;-79
2022/05/26 10:38:14;;;;;;;1.85;1.20;;;;;;;19.86;52.97;100513.39;1633297;86;25825;-80
2022/05/26 10:40:55;;;;;;;2.80;1.22;;;;;;;19.86;53.96;100517.47;1632971;86;26124;-79
2022/05/26 10:43:26;;;;;;;3.00;1.12;;;;;;;19.90;53.54;100515.89;1633540;87;26036;-79
2022/05/26 10:45:53;;;;;;;;;;;;;;;19.93;54.16;100504.50;1635448;87;28181;-80
2022/05/26 10:48:46;;;;;;;2.62;1.22;;;;;;;19.98;54.25;100510.55;1605620;88;25816;-79
2022/05/26 10:51:24;;;;;;;2.50;1.50;;;;;;;19.99;54.95;100511.66;1632947;87;25897;-80
2022/05/26 10:54:16;;;;;;;2.65;1.35;;;;;;;20.03;55.36;100505.20;1633217;87;25856;-79
2022/05/26 10:56:59;;;;;;;1.55;1.45;;;;;;;20.12;55.95;100506.95;1633150;87;25736;-79
2022/05/26 10:59:37;;;;;;;2.08;1.42;;;;;;;20.14;55.81;100508.34;1603454;88;27501;-80
2022/05/26 11:02:25;;;;;;;5.05;1.57;;;;;;;20.28;57.07;100507.45;1639745;86;25791;-79
2022/05/26 11:05:05;;;;;;;2.55;1.35;;;;;;;20.40;56.40;100512.26;1640072;86;26090;-80
2022/05/26 11:07:43;;;;;;;2.70;1.32;;;;;;;20.40;54.87;100513.62;1640117;86;26281;-79
2022/05/26 11:10:18;;;;;;;2.42;1.57;;;;;;;20.43;55.38;100509.84;1640127;86;25796;-79
2022/05/26 11:12:52;;;;;;;1.40;1.30;;;;;;;20.48;55.57;100507.20;1640463;86;28477;-79
2022/05/26 11:18:22;;;;;;;6.15;1.50;;;;;;;20.65;54.00;100508.48;1639953;86;25868;-80
2022/05/26 11:20:53;;;;;;;3.85;1.07;;;;;;;20.68;52.83;100508.78;1640023;86;26783;-80
2022/05/26 11:23:21;;;;;;;8.85;1.50;;;;;;;20.82;51.50;100507.85;1639871;86;26503;-80
2022/05/26 11:26:05;;;;;;;1.52;0.90;;;;;;;20.85;51.57;100518.22;1639963;87;27650;-80
2022/05/26 11:28:53;;;;;;;6.70;1.52;;;;;;;20.85;52.17;100511.41;1640072;87;25916;-79
2022/05/26 11:37:29;;;;;;;2.47;1.12;;;;;;;20.83;50.39;100498.59;1640285;86;25781;-79
2022/05/26 11:40:04;;;;;;;3.52;0.90;;;;;;;20.72;51.00;100509.91;1640195;87;28360;-81
2022/05/26 11:45:30;;;;;;;1.95;0.60;;;;;;;20.72;50.63;100501.74;1604934;88;25805;-79
2022/05/26 11:51:27;;;;;;;1.02;0.65;;;;;;;21.18;50.88;100497.63;1657303;81;25885;-80
2022/05/26 11:56:49;;;;;;;6.10;1.20;;;;;;;21.22;50.90;100486.48;1601647;87;26615;-80
2022/05/26 11:59:33;;;;;;;2.10;0.90;;;;;;;21.46;49.83;100493.25;1630218;86;25799;-80
2022/05/26 12:02:08;;;;;;;1.75;0.80;;;;;;;21.56;51.13;100495.21;1601856;88;25828;-81
2022/05/26 12:04:38;;;;;;;2.25;1.70;;;;;;;21.64;48.90;100495.28;1604931;88;25940;-79
2022/05/26 12:07:20;;;;;;;2.90;1.05;;;;;;;21.63;48.29;100497.72;1628099;87;27469;-80
2022/05/26 12:10:01;;;;;;;2.87;1.10;;;;;;;21.47;49.45;100488.06;1627212;88;25813;-80
2022/05/26 12:12:33;;;;;;;3.98;1.12;;;;;;;21.38;48.89;100484.16;1627045;87;25277;-80
2022/05/26 12:15:09;;;;;;;2.70;1.00;;;;;;;21.46;49.23;100490.52;1627342;87;25810;-79
2022/05/26 12:17:50;;;;;;;2.87;0.95;;;;;;;21.45;48.62;100483.41;1591338;88;25844;-80
2022/05/26 12:20:23;;;;;;;6.95;1.40;;;;;;;21.51;49.77;100485.09;1627456;87;27465;-80
2022/05/26 12:22:56;;;;;;;2.05;1.17;;;;;;;21.50;48.44;100488.91;1627447;87;25931;-80
2022/05/26 12:25:41;;;;;;;1.42;1.02;;;;;;;21.38;49.05;100485.53;1647545;81;26454;31
2022/05/26 12:28:27;;;;;;;1.60;1.15;;;;;;;21.42;49.09;100494.02;1578385;88;26517;-79
2022/05/26 12:30:59;;;;;;;2.10;1.30;;;;;;;21.52;49.95;100490.00;1596205;88;25796;-80
2022/05/26 12:33:57;;;;;;;5.42;1.15;;;;;;;21.59;48.88;100489.78;1608280;89;27501;-80
2022/05/26 12:36:39;;;;;;;4.95;0.90;;;;;;;21.57;48.36;100474.23;1618807;87;26533;-80
2022/05/26 12:39:25;;;;;;;1.87;0.93;;;;;;;21.64;49.63;100481.66;1634582;86;26467;-80
2022/05/26 12:42:06;;;;;;;2.27;1.12;;;;;;;21.72;48.76;100478.43;1613987;88;25927;-81